Alden Manor, New York
Current Conditions -  °F | °C
As of 8:51 AM on Tuesday 21 Oct 2014 (Local Time) from KJFK Reporting Station
Broken Clouds Broken Clouds  
Wind Chill: 59°   Ceiling: 25000
Heat Index: 59°   Visibility: 10mi
Dew Point: 48°   Wind: 5mph
Humidity: 67%   Direction: 90°E
Pressure: 29.91"   Gusts: NA
Location:  40.7013°N, 73.7074°W
Report Text: KJFK 211251Z 09004KT 10SM FEW055 SCT095 SCT130 BKN250 15/09 A2991 RMK AO2 SLP128 T01500089
Loading
Personal Weather Stations






























Interactive Weather Map
Tropical Storm Tracking
New forecast layout! Learn more

10-Day Weather Forecast

Advertisements
Track Severe Weather on mobile